createdAt,value
2023-04-03T00:01:10.308Z,1.41
2023-04-03T00:04:00.853Z,1.39
2023-04-03T00:06:51.880Z,1.38
2023-04-03T00:09:42.357Z,1.35
2023-04-03T00:12:32.919Z,1.32
2023-04-03T00:15:23.535Z,1.30
2023-04-03T00:18:14.200Z,1.25
2023-04-03T00:21:04.787Z,1.24
2023-04-03T00:23:55.701Z,1.22
2023-04-03T00:26:46.112Z,1.22
2023-04-03T00:29:37.665Z,1.19
2023-04-03T00:32:28.270Z,1.19
2023-04-03T00:35:19.134Z,1.17
2023-04-03T00:38:09.942Z,1.16
2023-04-03T00:41:00.587Z,1.16
2023-04-03T00:43:50.891Z,1.16
2023-04-03T00:46:41.490Z,1.15
2023-04-03T00:49:32.095Z,1.14
2023-04-03T00:52:23.411Z,1.11
2023-04-03T00:55:15.289Z,1.07
2023-04-03T00:58:06.042Z,1.03
2023-04-03T01:00:58.722Z,1.03
2023-04-03T01:03:49.334Z,1.03
2023-04-03T01:06:40.284Z,0.99
2023-04-03T01:09:32.329Z,0.97
2023-04-03T01:12:24.004Z,0.92
2023-04-03T01:15:16.399Z,0.91
2023-04-03T01:18:07.461Z,0.87
2023-04-03T01:21:16.209Z,0.84
2023-04-03T01:24:13.837Z,0.81
2023-04-03T01:27:05.029Z,0.77
2023-04-03T01:29:55.943Z,0.74
2023-04-03T01:32:46.322Z,0.69
2023-04-03T01:35:37.316Z,0.66
2023-04-03T01:38:28.336Z,0.64
2023-04-03T01:41:18.968Z,0.63
2023-04-03T01:44:10.052Z,0.66
2023-04-03T01:47:00.386Z,0.64
2023-04-03T01:49:51.734Z,0.61
2023-04-03T01:52:42.302Z,0.57
2023-04-03T01:55:32.776Z,0.53
2023-04-03T01:58:23.437Z,0.51
2023-04-03T02:01:14.083Z,0.48
2023-04-03T02:04:04.609Z,0.44
2023-04-03T02:06:55.118Z,0.40
2023-04-03T02:09:45.812Z,0.37
2023-04-03T02:12:37.299Z,0.36
2023-04-03T02:15:28.052Z,0.33
2023-04-03T02:18:18.638Z,0.32
2023-04-03T02:21:09.435Z,0.29
2023-04-03T02:24:00.287Z,0.26
2023-04-03T02:26:50.997Z,0.24
2023-04-03T02:29:41.361Z,0.25
2023-04-03T02:32:31.847Z,0.26
2023-04-03T02:35:22.184Z,0.23
2023-04-03T02:38:12.636Z,0.21
2023-04-03T02:41:04.829Z,0.19
2023-04-03T02:43:55.985Z,0.19
2023-04-03T02:46:46.485Z,0.15
2023-04-03T02:49:37.148Z,0.15
2023-04-03T02:52:27.819Z,0.15
2023-04-03T02:55:20.152Z,0.13
2023-04-03T02:58:11.629Z,0.10
2023-04-03T03:01:02.189Z,0.07
2023-04-03T03:03:52.811Z,0.06
2023-04-03T03:06:44.836Z,0.06
2023-04-03T03:09:35.924Z,0.09
2023-04-03T03:12:26.699Z,0.12
2023-04-03T03:15:18.691Z,0.14
2023-04-03T03:18:09.393Z,0.16
2023-04-03T03:21:00.612Z,0.19
2023-04-03T03:23:51.069Z,0.25
2023-04-03T03:26:42.397Z,0.30
2023-04-03T03:29:32.713Z,0.31
2023-04-03T03:32:23.202Z,0.35
2023-04-03T03:35:13.986Z,0.32
2023-04-03T03:38:04.740Z,0.28
2023-04-03T03:40:56.626Z,0.27
2023-04-03T03:43:47.078Z,0.22
2023-04-03T03:46:37.942Z,0.18
2023-04-03T03:49:28.512Z,0.17
2023-04-03T03:52:19.250Z,0.17
2023-04-03T03:55:11.444Z,0.16
2023-04-03T03:58:02.828Z,0.17
2023-04-03T04:00:53.912Z,0.14
2023-04-03T04:03:44.486Z,0.11
2023-04-03T04:06:36.437Z,0.08
2023-04-03T04:09:28.933Z,0.06
2023-04-03T04:12:19.808Z,0.03
2023-04-03T04:15:13.476Z,-0.01
2023-04-03T04:18:04.851Z,-0.03
2023-04-03T04:20:56.270Z,-0.07
2023-04-03T04:23:47.180Z,-0.12
2023-04-03T04:26:38.073Z,-0.14
2023-04-03T04:29:29.573Z,-0.16
2023-04-03T04:32:20.388Z,-0.17
2023-04-03T04:35:11.994Z,-0.16
2023-04-03T04:38:05.892Z,-0.10
2023-04-03T04:40:57.604Z,0.05
2023-04-03T04:43:48.481Z,0.16
2023-04-03T04:46:39.937Z,0.67
2023-04-03T04:49:30.764Z,1.26
2023-04-03T04:52:21.814Z,1.53
2023-04-03T04:55:12.708Z,1.88
2023-04-03T04:58:03.389Z,1.94
2023-04-03T05:01:01.653Z,3.52
2023-04-03T05:03:52.775Z,5.59
2023-04-03T05:06:43.883Z,7.88
2023-04-03T05:09:38.043Z,10.05
2023-04-03T05:12:29.038Z,9.97
2023-04-03T05:15:23.051Z,8.26
2023-04-03T05:18:14.269Z,6.86
2023-04-03T05:21:05.851Z,5.79
2023-04-03T05:23:56.633Z,4.89
2023-04-03T05:26:47.045Z,4.13
2023-04-03T05:29:38.569Z,3.58
2023-04-03T05:32:29.512Z,3.19
2023-04-03T05:35:30.367Z,3.66
2023-04-03T05:38:22.215Z,6.61
2023-04-03T05:41:12.839Z,10.40
2023-04-03T05:44:03.914Z,13.02
2023-04-03T05:46:54.568Z,14.41
2023-04-03T05:49:46.458Z,15.04
2023-04-03T05:52:39.814Z,16.20
2023-04-03T05:55:30.747Z,16.65
2023-04-03T05:58:21.628Z,17.23
2023-04-03T06:01:12.798Z,17.25
2023-04-03T06:04:04.096Z,17.50
2023-04-03T06:06:55.818Z,18.66
2023-04-03T06:09:46.697Z,18.67
2023-04-03T06:12:37.634Z,18.23
2023-04-03T06:15:28.342Z,17.98
2023-04-03T06:18:19.248Z,18.91
2023-04-03T06:21:09.832Z,19.79
2023-04-03T06:24:01.250Z,20.48
2023-04-03T06:26:53.596Z,22.15
2023-04-03T06:29:44.394Z,24.46
2023-04-03T06:32:35.121Z,26.26
2023-04-03T06:35:26.038Z,27.40
2023-04-03T06:38:16.494Z,28.87
2023-04-03T06:41:08.222Z,29.85
2023-04-03T06:43:59.537Z,30.53
2023-04-03T06:46:50.169Z,30.91
2023-04-03T06:49:40.700Z,31.32
2023-04-03T06:52:31.153Z,31.13
2023-04-03T06:55:22.993Z,29.62
2023-04-03T06:58:14.943Z,27.41
2023-04-03T07:01:05.910Z,24.61
2023-04-03T07:03:56.917Z,22.17
2023-04-03T07:06:47.925Z,20.42
2023-04-03T07:09:38.759Z,18.67
2023-04-03T07:12:29.664Z,17.08
2023-04-03T07:15:20.327Z,15.48
2023-04-03T07:18:10.733Z,14.12
2023-04-03T07:21:01.657Z,12.53
2023-04-03T07:23:52.461Z,11.32
2023-04-03T07:26:43.378Z,10.29
2023-04-03T07:29:34.179Z,9.45
2023-04-03T07:32:24.936Z,8.57
2023-04-03T07:35:15.556Z,7.76
2023-04-03T07:38:06.652Z,7.05
2023-04-03T07:40:57.415Z,6.45
2023-04-03T07:43:50.834Z,5.97
2023-04-03T07:46:41.938Z,5.63
2023-04-03T07:49:34.143Z,5.41
2023-04-03T07:52:24.723Z,5.18
2023-04-03T07:55:15.613Z,4.94
2023-04-03T07:58:06.144Z,4.78
2023-04-03T08:00:57.230Z,6.10
2023-04-03T08:03:48.007Z,9.16
2023-04-03T08:06:46.543Z,11.84
2023-04-03T08:09:37.701Z,13.90
2023-04-03T08:12:29.669Z,15.47
2023-04-03T08:15:20.544Z,16.88
2023-04-03T08:18:11.447Z,17.55
2023-04-03T08:21:02.373Z,18.27
2023-04-03T08:23:53.848Z,18.98
2023-04-03T08:26:44.765Z,19.70
2023-04-03T08:29:35.627Z,20.25
2023-04-03T08:32:26.664Z,20.88
2023-04-03T08:35:17.681Z,20.52
2023-04-03T08:38:08.157Z,20.44
2023-04-03T08:41:06.501Z,20.53
2023-04-03T08:44:00.332Z,20.19
2023-04-03T08:47:06.438Z,19.72
2023-04-03T08:49:57.967Z,18.98
2023-04-03T08:52:49.813Z,18.73
2023-04-03T08:55:44.532Z,18.80
2023-04-03T08:58:37.790Z,17.25
2023-04-03T09:01:29.701Z,17.33
2023-04-03T09:04:20.687Z,17.79
2023-04-03T09:07:14.548Z,17.94
2023-04-03T09:10:06.499Z,18.07
2023-04-03T09:13:02.394Z,18.27
2023-04-03T09:15:52.916Z,18.31
2023-04-03T09:18:46.541Z,18.25
2023-04-03T09:21:39.009Z,18.29
2023-04-03T09:24:29.413Z,17.49
2023-04-03T09:27:20.132Z,15.85
2023-04-03T09:30:16.117Z,15.14
2023-04-03T09:33:08.544Z,15.16
2023-04-03T09:35:58.936Z,14.59
2023-04-03T09:38:49.361Z,14.03
2023-04-03T09:41:39.909Z,13.90
2023-04-03T09:44:31.327Z,13.50
2023-04-03T09:47:27.649Z,13.62
2023-04-03T09:50:24.289Z,13.83
2023-04-03T09:53:30.426Z,14.40
2023-04-03T09:56:26.795Z,14.33
2023-04-03T09:59:18.547Z,14.21
2023-04-03T10:02:34.951Z,14.62
2023-04-03T10:05:37.373Z,13.55
2023-04-03T10:08:29.372Z,12.35
2023-04-03T10:11:20.860Z,11.99
2023-04-03T10:14:18.062Z,12.28
2023-04-03T10:17:16.452Z,12.71
2023-04-03T10:20:12.970Z,13.00
2023-04-03T10:23:13.038Z,12.55
2023-04-03T10:26:08.919Z,11.70
2023-04-03T10:29:02.610Z,11.15
2023-04-03T10:31:55.386Z,11.23
2023-04-03T10:34:51.672Z,10.65
2023-04-03T10:38:00.896Z,9.81
2023-04-03T10:40:57.555Z,9.33
2023-04-03T10:43:53.592Z,9.23
2023-04-03T10:46:45.934Z,9.60
2023-04-03T10:49:50.071Z,9.97
2023-04-03T10:52:50.304Z,10.28
2023-04-03T10:55:42.959Z,10.53
2023-04-03T10:58:34.386Z,11.06
2023-04-03T11:01:27.236Z,11.25
2023-04-03T11:04:18.199Z,11.17
2023-04-03T11:07:12.372Z,11.11
2023-04-03T11:10:05.393Z,10.82
2023-04-03T11:12:58.554Z,10.77
2023-04-03T11:15:49.186Z,10.80
2023-04-03T11:18:42.189Z,10.57
2023-04-03T11:21:35.793Z,10.27
2023-04-03T11:24:28.236Z,10.36
2023-04-03T11:27:23.881Z,10.67
2023-04-03T11:30:19.545Z,10.67
2023-04-03T11:33:24.049Z,10.15
2023-04-03T11:36:26.259Z,9.98
2023-04-03T11:39:24.947Z,10.03
2023-04-03T11:42:20.377Z,10.06
2023-04-03T11:45:32.324Z,9.93
2023-04-03T11:48:48.486Z,9.85
2023-04-03T11:51:45.714Z,9.78
2023-04-03T11:54:55.354Z,9.52
2023-04-03T11:57:51.511Z,9.48
2023-04-03T12:01:11.454Z,9.40
2023-04-03T12:04:15.878Z,9.26
2023-04-03T12:07:20.951Z,8.87
2023-04-03T12:10:31.540Z,8.49
2023-04-03T12:13:23.268Z,7.99
2023-04-03T12:16:22.870Z,7.78
2023-04-03T12:19:42.572Z,7.52
2023-04-03T12:22:33.727Z,7.56
2023-04-03T12:25:50.874Z,7.52
2023-04-03T12:28:42.336Z,7.31
2023-04-03T12:31:42.997Z,7.17
2023-04-03T12:34:44.343Z,7.07
2023-04-03T12:37:42.486Z,6.94
2023-04-03T12:40:35.701Z,6.91
2023-04-03T12:43:41.748Z,7.07
2023-04-03T12:46:40.937Z,7.07
2023-04-03T12:49:41.156Z,6.99
2023-04-03T12:52:39.424Z,6.82
2023-04-03T12:55:30.355Z,6.65
2023-04-03T12:58:25.216Z,6.45
2023-04-03T13:01:19.323Z,6.44
2023-04-03T13:04:12.257Z,6.52
2023-04-03T13:07:03.569Z,6.48
2023-04-03T13:10:04.570Z,6.35
2023-04-03T13:12:57.055Z,6.27
2023-04-03T13:15:50.139Z,6.24
2023-04-03T13:18:42.184Z,6.22
2023-04-03T13:21:33.829Z,6.14
2023-04-03T13:24:24.579Z,5.97
2023-04-03T13:27:15.378Z,5.86
2023-04-03T13:30:08.250Z,5.91
2023-04-03T13:32:59.967Z,5.90
2023-04-03T13:35:50.333Z,5.81
2023-04-03T13:38:41.125Z,5.72
2023-04-03T13:44:42.085Z,5.65
2023-04-03T13:47:42.333Z,5.57
2023-04-03T13:50:33.215Z,5.59
2023-04-03T13:53:23.766Z,5.72
2023-04-03T13:56:21.668Z,5.76
2023-04-03T13:59:25.496Z,5.72
2023-04-03T14:02:20.131Z,5.58
2023-04-03T14:05:11.775Z,5.49
2023-04-03T14:08:03.145Z,5.48
2023-04-03T14:10:53.862Z,5.51
2023-04-03T14:13:47.184Z,5.57
2023-04-03T14:16:42.119Z,5.66
2023-04-03T14:19:34.242Z,5.59
2023-04-03T14:22:26.158Z,5.55
2023-04-03T14:25:16.761Z,5.49
2023-04-03T14:28:18.147Z,5.39
2023-04-03T14:31:09.241Z,5.38
2023-04-03T14:33:59.829Z,5.40
2023-04-03T14:36:50.335Z,5.43
2023-04-03T14:39:41.307Z,5.47
2023-04-03T14:42:32.875Z,5.48
2023-04-03T14:45:23.742Z,5.49
2023-04-03T14:48:17.753Z,5.45
2023-04-03T14:51:09.454Z,5.39
2023-04-03T14:54:00.345Z,5.39
2023-04-03T14:56:51.303Z,5.39
2023-04-03T14:59:42.048Z,5.41
2023-04-03T15:02:34.844Z,5.44
2023-04-03T15:05:26.342Z,5.53
2023-04-03T15:08:21.760Z,5.71
2023-04-03T15:11:12.559Z,5.86
2023-04-03T15:14:03.731Z,5.89
2023-04-03T15:16:54.307Z,5.84
2023-04-03T15:19:45.429Z,5.81
2023-04-03T15:22:36.123Z,5.79
2023-04-03T15:25:26.725Z,5.73
2023-04-03T15:28:23.587Z,5.65
2023-04-03T15:31:14.112Z,5.61
2023-04-03T15:34:04.575Z,5.54
2023-04-03T15:36:55.836Z,5.47
2023-04-03T15:39:46.756Z,5.39
2023-04-03T15:42:37.552Z,5.34
2023-04-03T15:45:28.317Z,5.29
2023-04-03T15:48:18.744Z,5.30
2023-04-03T15:51:10.107Z,5.25
2023-04-03T15:54:00.829Z,5.14
2023-04-03T15:56:54.353Z,5.03
2023-04-03T15:59:44.931Z,5.00
2023-04-03T16:02:35.801Z,5.00
2023-04-03T16:05:26.354Z,5.01
2023-04-03T16:08:17.388Z,5.01
2023-04-03T16:11:08.311Z,4.96
2023-04-03T16:13:58.861Z,4.92
2023-04-03T16:16:49.362Z,4.92
2023-04-03T16:19:40.575Z,4.92
2023-04-03T16:22:31.211Z,4.94
2023-04-03T16:25:22.426Z,4.96
2023-04-03T16:28:13.032Z,4.97
2023-04-03T16:31:03.443Z,4.99
2023-04-03T16:33:53.875Z,4.95
2023-04-03T16:36:44.877Z,4.90
2023-04-03T16:39:35.705Z,4.89
2023-04-03T16:42:26.287Z,4.86
2023-04-03T16:45:17.182Z,4.85
2023-04-03T16:48:09.043Z,4.83
2023-04-03T16:50:59.655Z,4.77
2023-04-03T16:53:50.359Z,4.78
2023-04-03T16:56:43.945Z,4.77
2023-04-03T16:59:34.467Z,4.79
2023-04-03T17:02:26.724Z,4.81
2023-04-03T17:05:17.164Z,4.77
2023-04-03T17:08:08.064Z,4.76
2023-04-03T17:10:59.040Z,4.74
2023-04-03T17:13:49.801Z,4.70
2023-04-03T17:16:40.541Z,4.66
2023-04-03T17:19:31.169Z,4.63
2023-04-03T17:22:21.996Z,4.56
2023-04-03T17:25:12.816Z,4.49
2023-04-03T17:28:03.478Z,4.47
2023-04-03T17:30:54.115Z,4.43
2023-04-03T17:33:44.659Z,4.39
2023-04-03T17:36:35.688Z,4.35
2023-04-03T17:39:26.625Z,4.32
2023-04-03T17:42:17.173Z,4.26
2023-04-03T17:45:10.247Z,4.24
2023-04-03T17:48:01.341Z,4.24
2023-04-03T17:50:51.840Z,4.18
2023-04-03T17:53:42.289Z,4.14
2023-04-03T17:56:33.240Z,4.10
2023-04-03T17:59:23.974Z,4.06
2023-04-03T18:02:14.546Z,4.03
2023-04-03T18:05:05.785Z,4.00
2023-04-03T18:07:56.670Z,3.96
2023-04-03T18:10:50.167Z,3.87
2023-04-03T18:13:42.336Z,3.81
2023-04-03T18:16:33.262Z,3.77
2023-04-03T18:19:29.761Z,3.71
2023-04-03T18:22:21.119Z,3.66
2023-04-03T18:25:14.268Z,3.64
2023-04-03T18:28:06.766Z,3.61
2023-04-03T18:30:57.325Z,3.56
2023-04-03T18:33:48.167Z,3.54
2023-04-03T18:36:39.160Z,3.48
2023-04-03T18:39:30.532Z,3.41
2023-04-03T18:42:22.267Z,3.35
2023-04-03T18:45:14.199Z,3.30
2023-04-03T18:48:04.845Z,3.25
2023-04-03T18:50:55.586Z,3.20
2023-04-03T18:53:46.205Z,3.15
2023-04-03T18:56:37.146Z,3.11
2023-04-03T18:59:28.288Z,3.05
2023-04-03T19:02:21.676Z,2.98
2023-04-03T19:05:14.496Z,2.94
2023-04-03T19:08:05.663Z,2.92
2023-04-03T19:10:56.737Z,2.91
2023-04-03T19:14:04.292Z,2.86
2023-04-03T19:16:59.270Z,2.82
2023-04-03T19:19:50.272Z,2.80
2023-04-03T19:22:41.451Z,2.79
2023-04-03T19:25:32.749Z,2.75
2023-04-03T19:28:23.423Z,2.70
2023-04-03T19:31:17.457Z,2.66
2023-04-03T19:34:08.268Z,2.65
2023-04-03T19:36:59.117Z,2.58
2023-04-03T19:39:49.606Z,2.52
2023-04-03T19:42:43.067Z,2.49
2023-04-03T19:45:34.294Z,2.46
2023-04-03T19:48:25.103Z,2.43
2023-04-03T19:51:16.093Z,2.40
2023-04-03T19:54:06.908Z,2.36
2023-04-03T19:56:58.019Z,2.31
2023-04-03T19:59:48.656Z,2.25
2023-04-03T20:02:39.383Z,2.19
2023-04-03T20:05:30.534Z,2.15
2023-04-03T20:08:25.205Z,2.11
2023-04-03T20:11:15.799Z,2.07
2023-04-03T20:14:06.955Z,2.08
2023-04-03T20:16:57.842Z,2.05
2023-04-03T20:19:48.382Z,2.02
2023-04-03T20:22:39.730Z,2.00
2023-04-03T20:25:47.976Z,1.96
2023-04-03T20:28:41.305Z,1.87
2023-04-03T20:31:32.774Z,1.82
2023-04-03T20:34:23.790Z,1.75
2023-04-03T20:37:22.370Z,1.64
2023-04-03T20:40:14.500Z,1.54
2023-04-03T20:43:04.754Z,1.47
2023-04-03T20:45:55.785Z,1.38
2023-04-03T20:48:46.701Z,1.31
2023-04-03T20:51:37.851Z,1.25
2023-04-03T20:54:28.595Z,1.19
2023-04-03T20:57:19.050Z,1.16
2023-04-03T21:00:15.013Z,1.11
2023-04-03T21:03:06.215Z,1.08
2023-04-03T21:05:59.782Z,1.02
2023-04-03T21:09:25.785Z,0.99
2023-04-03T21:12:51.196Z,0.95
2023-04-03T21:15:48.896Z,0.86
2023-04-03T21:19:06.107Z,0.82
2023-04-03T21:21:56.890Z,0.76
2023-04-03T21:24:47.373Z,0.73
2023-04-03T21:27:38.513Z,0.68
2023-04-03T21:30:29.617Z,0.65
2023-04-03T21:33:20.250Z,0.63
2023-04-03T21:36:11.115Z,0.63
2023-04-03T21:39:01.848Z,0.59
2023-04-03T21:41:52.851Z,0.55
2023-04-03T21:44:43.885Z,0.53
2023-04-03T21:47:35.760Z,0.47
2023-04-03T21:50:26.705Z,0.43
2023-04-03T21:53:18.197Z,0.41
2023-04-03T21:56:09.365Z,0.39
2023-04-03T21:59:00.290Z,0.37
2023-04-03T22:01:51.246Z,0.37
2023-04-03T22:04:41.930Z,0.39
2023-04-03T22:07:32.636Z,0.39
2023-04-03T22:10:23.486Z,0.38
2023-04-03T22:13:15.156Z,0.38
2023-04-03T22:16:06.214Z,0.33
2023-04-03T22:18:59.344Z,0.30
2023-04-03T22:21:50.249Z,0.28
2023-04-03T22:24:42.306Z,0.27
2023-04-03T22:27:33.286Z,0.27
2023-04-03T22:30:24.170Z,0.25
2023-04-03T22:33:14.534Z,0.20
2023-04-03T22:36:05.643Z,0.15
2023-04-03T22:38:57.358Z,0.11
2023-04-03T22:41:47.903Z,0.09
2023-04-03T22:44:38.898Z,0.10
2023-04-03T22:47:29.491Z,0.05
2023-04-03T22:50:19.992Z,0.01
2023-04-03T22:53:10.546Z,0.00
2023-04-03T22:56:01.409Z,-0.03
2023-04-03T22:58:52.460Z,-0.02
2023-04-03T23:01:43.422Z,-0.02
2023-04-03T23:04:34.469Z,-0.02
2023-04-03T23:07:25.356Z,-0.03
2023-04-03T23:10:16.408Z,-0.04
2023-04-03T23:13:07.319Z,-0.09
2023-04-03T23:15:58.158Z,-0.12
2023-04-03T23:18:50.071Z,-0.15
2023-04-03T23:21:40.555Z,-0.15
2023-04-03T23:24:30.855Z,-0.15
2023-04-03T23:27:21.292Z,-0.17
2023-04-03T23:30:13.722Z,-0.19
2023-04-03T23:33:04.328Z,-0.18
2023-04-03T23:35:54.727Z,-0.19
2023-04-03T23:38:45.514Z,-0.18
2023-04-03T23:41:36.768Z,-0.16
2023-04-03T23:44:27.705Z,-0.11
2023-04-03T23:47:18.510Z,-0.13
2023-04-03T23:50:11.429Z,-0.14
2023-04-03T23:53:02.247Z,-0.12
2023-04-03T23:55:52.629Z,-0.13
2023-04-03T23:58:43.867Z,-0.12
